Wetterdaten: Woche 12.03.12 - 18.03.12 (KW11)
Datum Zeit Temperatur Luftfeuchte Luftdruck Niederschlag Windrichtung Sonnenschein Solar Wind
12.03.2012 00:00 3,5 C 96 % 1031,6 hPa 0,0 l/m S-SW 0,00 h 0 W/m 2,1 km/h (1 Bft)
12.03.2012 01:00 3,3 C 96 % 1031,7 hPa 0,0 l/m N 0,00 h 0 W/m 0,0 km/h (0 Bft)
12.03.2012 02:00 3,3 C 96 % 1031,3 hPa 0,0 l/m N 0,00 h 0 W/m 0,4 km/h (0 Bft)
12.03.2012 03:00 3,1 C 97 % 1031,0 hPa 0,0 l/m N 0,00 h 0 W/m 0,8 km/h (0 Bft)
12.03.2012 04:00 3,0 C 97 % 1030,6 hPa 0,0 l/m N 0,00 h 0 W/m 1,6 km/h (1 Bft)
12.03.2012 05:00 3,0 C 97 % 1030,4 hPa 0,0 l/m N 0,00 h 0 W/m 1,1 km/h (0 Bft)
12.03.2012 06:00 3,1 C 97 % 1030,3 hPa 0,0 l/m S-SW 0,00 h 6 W/m 2,8 km/h (1 Bft)
12.03.2012 07:00 3,2 C 97 % 1030,4 hPa 0,0 l/m N 0,00 h 19 W/m 2,1 km/h (1 Bft)
12.03.2012 08:00 3,9 C 98 % 1030,5 hPa 0,0 l/m S-SW 0,33 h 132 W/m 4,9 km/h (1 Bft)
12.03.2012 09:00 5,3 C 96 % 1030,7 hPa 0,0 l/m S-SW 0,25 h 166 W/m 6,1 km/h (2 Bft)
12.03.2012 10:00 7,5 C 86 % 1030,5 hPa 0,0 l/m S-SW 0,33 h 266 W/m 7,1 km/h (2 Bft)
12.03.2012 11:00 8,6 C 77 % 1030,2 hPa 0,0 l/m W 0,08 h 167 W/m 6,7 km/h (2 Bft)
12.03.2012 12:00 9,5 C 71 % 1029,8 hPa 0,0 l/m W 0,00 h 186 W/m 6,8 km/h (2 Bft)
12.03.2012 13:00 10,4 C 68 % 1029,4 hPa 0,0 l/m NW 0,17 h 267 W/m 8,3 km/h (2 Bft)
12.03.2012 14:00 10,9 C 66 % 1029,2 hPa 0,0 l/m N-NW 0,00 h 163 W/m 8,7 km/h (2 Bft)
12.03.2012 15:00 11,5 C 65 % 1028,9 hPa 0,0 l/m N 0,08 h 175 W/m 8,1 km/h (2 Bft)
12.03.2012 16:00 10,6 C 71 % 1029,1 hPa 0,0 l/m S-SW 0,00 h 71 W/m 8,5 km/h (2 Bft)
12.03.2012 17:00 9,9 C 74 % 1029,3 hPa 0,0 l/m SW 0,00 h 28 W/m 6,8 km/h (2 Bft)
12.03.2012 18:00 9,5 C 74 % 1029,9 hPa 0,0 l/m N-NO 0,00 h 6 W/m 8,0 km/h (2 Bft)
12.03.2012 19:00 8,4 C 76 % 1030,3 hPa 0,0 l/m NO 0,00 h 0 W/m 4,7 km/h (1 Bft)
12.03.2012 20:00 6,9 C 80 % 1030,2 hPa 0,0 l/m N 0,00 h 0 W/m 0,1 km/h (0 Bft)
12.03.2012 21:00 5,8 C 86 % 1030,5 hPa 0,0 l/m N 0,00 h 0 W/m 0,3 km/h (0 Bft)
12.03.2012 22:00 5,9 C 88 % 1030,4 hPa 0,0 l/m N 0,00 h 0 W/m 0,0 km/h (0 Bft)
12.03.2012 23:00 6,0 C 88 % 1030,3 hPa 0,0 l/m N 0,00 h 0 W/m 0,7 km/h (0 Bft)
13.03.2012 00:00 6,0 C 88 % 1030,0 hPa 0,0 l/m N 0,00 h 0 W/m 0,9 km/h (0 Bft)
13.03.2012 01:00 6,1 C 87 % 1030,1 hPa 0,0 l/m N 0,00 h 0 W/m 1,1 km/h (0 Bft)
13.03.2012 02:00 6,3 C 86 % 1030,1 hPa 0,0 l/m N 0,00 h 0 W/m 1,5 km/h (1 Bft)
13.03.2012 03:00 6,3 C 85 % 1029,9 hPa 0,0 l/m N 0,00 h 0 W/m 0,5 km/h (0 Bft)
13.03.2012 04:00 5,8 C 85 % 1029,4 hPa 0,0 l/m N 0,00 h 0 W/m 0,9 km/h (0 Bft)
13.03.2012 05:00 4,0 C 86 % 1029,5 hPa 0,0 l/m N 0,00 h 0 W/m 0,0 km/h (0 Bft)
13.03.2012 06:00 2,5 C 88 % 1029,3 hPa 0,0 l/m N 0,00 h 9 W/m 0,0 km/h (0 Bft)
13.03.2012 07:00 2,0 C 92 % 1029,5 hPa 0,0 l/m N 0,00 h 57 W/m 0,0 km/h (0 Bft)
13.03.2012 08:00 4,7 C 93 % 1030,1 hPa 0,0 l/m N 0,00 h 104 W/m 0,9 km/h (0 Bft)
13.03.2012 09:00 6,7 C 87 % 1030,2 hPa 0,0 l/m NO 0,00 h 181 W/m 4,3 km/h (1 Bft)
13.03.2012 10:00 8,0 C 80 % 1030,1 hPa 0,0 l/m O 0,00 h 161 W/m 7,5 km/h (2 Bft)
13.03.2012 11:00 8,5 C 78 % 1030,0 hPa 0,0 l/m NO 0,00 h 204 W/m 6,8 km/h (2 Bft)
13.03.2012 12:00 9,7 C 74 % 1029,7 hPa 0,0 l/m NO 0,75 h 519 W/m 9,2 km/h (2 Bft)
13.03.2012 13:00 10,6 C 70 % 1029,4 hPa 0,0 l/m N-NO 0,83 h 592 W/m 11,3 km/h (2 Bft)
13.03.2012 14:00 11,4 C 66 % 1028,8 hPa 0,0 l/m NO 1,00 h 565 W/m 11,4 km/h (2 Bft)
13.03.2012 15:00 11,3 C 66 % 1028,6 hPa 0,0 l/m O-SO 1,00 h 417 W/m 13,0 km/h (3 Bft)
13.03.2012 16:00 10,8 C 68 % 1028,5 hPa 0,0 l/m O-NO 1,00 h 261 W/m 12,5 km/h (3 Bft)
13.03.2012 17:00 9,9 C 70 % 1028,5 hPa 0,0 l/m O-NO 0,67 h 88 W/m 10,5 km/h (2 Bft)
13.03.2012 18:00 8,5 C 76 % 1028,8 hPa 0,0 l/m O-NO 0,08 h 11 W/m 4,1 km/h (1 Bft)
13.03.2012 19:00 6,6 C 83 % 1029,1 hPa 0,0 l/m N 0,00 h 0 W/m 1,7 km/h (1 Bft)
13.03.2012 20:00 4,9 C 88 % 1029,3 hPa 0,0 l/m N 0,00 h 0 W/m 0,7 km/h (0 Bft)
13.03.2012 21:00 4,0 C 90 % 1029,2 hPa 0,0 l/m N 0,00 h 0 W/m 1,2 km/h (1 Bft)
13.03.2012 22:00 3,2 C 89 % 1029,2 hPa 0,0 l/m N 0,00 h 0 W/m 0,5 km/h (0 Bft)
13.03.2012 23:00 2,4 C 91 % 1029,3 hPa 0,0 l/m O-NO 0,00 h 0 W/m 3,5 km/h (1 Bft)
14.03.2012 00:00 2,2 C 94 % 1029,4 hPa 0,0 l/m O-NO 0,00 h 0 W/m 3,7 km/h (1 Bft)
14.03.2012 01:00 1,7 C 94 % 1029,4 hPa 0,0 l/m O-NO 0,00 h 0 W/m 2,4 km/h (1 Bft)
14.03.2012 02:00 1,2 C 94 % 1029,4 hPa 0,0 l/m O-NO 0,00 h 0 W/m 3,7 km/h (1 Bft)
14.03.2012 03:00 1,2 C 95 % 1029,4 hPa 0,0 l/m N 0,00 h 0 W/m 2,7 km/h (1 Bft)
14.03.2012 04:00 1,5 C 96 % 1029,4 hPa 0,0 l/m N 0,00 h 0 W/m 1,7 km/h (1 Bft)
14.03.2012 05:00 1,6 C 96 % 1029,4 hPa 0,0 l/m N 0,00 h 0 W/m 2,7 km/h (1 Bft)
14.03.2012 06:00 1,3 C 97 % 1029,3 hPa 0,0 l/m O-NO 0,00 h 8 W/m 2,9 km/h (1 Bft)
14.03.2012 07:00 1,2 C 97 % 1029,1 hPa 0,0 l/m N 0,00 h 39 W/m 1,6 km/h (1 Bft)
14.03.2012 08:00 1,5 C 98 % 1029,3 hPa 0,0 l/m N 0,00 h 114 W/m 2,7 km/h (1 Bft)
14.03.2012 09:00 3,1 C 99 % 1029,2 hPa 0,0 l/m O-NO 0,00 h 151 W/m 3,1 km/h (1 Bft)
14.03.2012 10:00 5,0 C 93 % 1029,5 hPa 0,0 l/m O-NO 0,50 h 344 W/m 4,8 km/h (1 Bft)
14.03.2012 11:00 7,9 C 84 % 1029,4 hPa 0,0 l/m O 1,00 h 631 W/m 7,2 km/h (2 Bft)
14.03.2012 12:00 10,2 C 72 % 1029,0 hPa 0,0 l/m SO 1,00 h 674 W/m 7,2 km/h (2 Bft)
14.03.2012 13:00 12,5 C 64 % 1028,3 hPa 0,0 l/m SO 1,00 h 658 W/m 7,5 km/h (2 Bft)
14.03.2012 14:00 14,1 C 59 % 1027,6 hPa 0,0 l/m O-NO 1,00 h 580 W/m 8,0 km/h (2 Bft)
14.03.2012 15:00 14,8 C 57 % 1027,3 hPa 0,0 l/m O-NO 1,00 h 455 W/m 8,4 km/h (2 Bft)
14.03.2012 16:00 14,6 C 53 % 1027,1 hPa 0,0 l/m O 1,00 h 298 W/m 11,6 km/h (2 Bft)
14.03.2012 17:00 13,7 C 53 % 1027,0 hPa 0,0 l/m O-SO 0,75 h 100 W/m 6,3 km/h (2 Bft)
14.03.2012 18:00 10,5 C 66 % 1027,3 hPa 0,0 l/m N 0,08 h 11 W/m 1,2 km/h (1 Bft)
14.03.2012 19:00 7,8 C 77 % 1027,8 hPa 0,0 l/m N 0,00 h 0 W/m 1,9 km/h (1 Bft)
14.03.2012 20:00 6,5 C 83 % 1028,2 hPa 0,0 l/m N 0,00 h 0 W/m 1,1 km/h (0 Bft)
14.03.2012 21:00 5,0 C 88 % 1028,5 hPa 0,0 l/m N 0,00 h 0 W/m 0,1 km/h (0 Bft)
14.03.2012 22:00 4,2 C 91 % 1028,9 hPa 0,0 l/m N 0,00 h 0 W/m 2,0 km/h (1 Bft)
14.03.2012 23:00 4,1 C 91 % 1029,4 hPa 0,0 l/m N 0,00 h 0 W/m 2,8 km/h (1 Bft)
15.03.2012 00:00 3,3 C 93 % 1029,5 hPa 0,0 l/m O 0,00 h 0 W/m 3,3 km/h (1 Bft)
15.03.2012 01:00 2,8 C 95 % 1029,4 hPa 0,0 l/m O-NO 0,00 h 0 W/m 4,1 km/h (1 Bft)
15.03.2012 02:00 1,9 C 95 % 1029,1 hPa 0,0 l/m NO 0,00 h 0 W/m 5,2 km/h (1 Bft)
15.03.2012 03:00 1,2 C 96 % 1028,6 hPa 0,0 l/m N-NO 0,00 h 0 W/m 3,9 km/h (1 Bft)
15.03.2012 04:00 0,7 C 96 % 1028,4 hPa 0,0 l/m N 0,00 h 0 W/m 1,6 km/h (1 Bft)
15.03.2012 05:00 0,6 C 96 % 1028,4 hPa 0,2 l/m N-NO 0,00 h 0 W/m 2,0 km/h (1 Bft)
15.03.2012 06:00 0,4 C 97 % 1028,5 hPa 0,0 l/m N-NO 0,00 h 8 W/m 3,7 km/h (1 Bft)
15.03.2012 07:00 -0,0 C 97 % 1028,6 hPa 0,0 l/m N 0,00 h 30 W/m 2,9 km/h (1 Bft)
15.03.2012 08:00 0,1 C 98 % 1029,0 hPa 0,0 l/m N 0,00 h 87 W/m 2,7 km/h (1 Bft)
15.03.2012 09:00 1,4 C 99 % 1029,1 hPa 0,0 l/m N-NO 0,25 h 219 W/m 3,6 km/h (1 Bft)
15.03.2012 10:00 4,5 C 95 % 1028,9 hPa 0,0 l/m N-NO 0,92 h 528 W/m 3,7 km/h (1 Bft)
15.03.2012 11:00 9,0 C 79 % 1028,6 hPa 0,0 l/m N-NO 1,00 h 645 W/m 3,6 km/h (1 Bft)
15.03.2012 12:00 12,5 C 69 % 1028,2 hPa 0,0 l/m N-NO 1,00 h 684 W/m 6,1 km/h (2 Bft)
15.03.2012 13:00 15,2 C 59 % 1027,7 hPa 0,0 l/m O 1,00 h 662 W/m 7,5 km/h (2 Bft)
15.03.2012 14:00 16,8 C 52 % 1027,0 hPa 0,0 l/m SW 1,00 h 586 W/m 6,3 km/h (2 Bft)
15.03.2012 15:00 17,5 C 39 % 1026,6 hPa 0,0 l/m O 1,00 h 474 W/m 6,6 km/h (2 Bft)
15.03.2012 16:00 17,6 C 32 % 1026,3 hPa 0,0 l/m SO 1,00 h 325 W/m 5,2 km/h (1 Bft)
15.03.2012 17:00 16,3 C 42 % 1026,1 hPa 0,0 l/m N 0,75 h 113 W/m 1,7 km/h (1 Bft)
15.03.2012 18:00 11,7 C 59 % 1026,1 hPa 0,0 l/m N 0,08 h 11 W/m 0,4 km/h (0 Bft)
15.03.2012 19:00 8,8 C 67 % 1026,4 hPa 0,0 l/m N 0,00 h 0 W/m 0,4 km/h (0 Bft)
15.03.2012 20:00 7,2 C 70 % 1026,6 hPa 0,0 l/m N 0,00 h 0 W/m 0,0 km/h (0 Bft)
15.03.2012 21:00 5,8 C 75 % 1026,7 hPa 0,0 l/m N 0,00 h 0 W/m 0,0 km/h (0 Bft)
15.03.2012 22:00 4,6 C 80 % 1026,9 hPa 0,0 l/m N 0,00 h 0 W/m 0,0 km/h (0 Bft)
15.03.2012 23:00 3,6 C 85 % 1026,8 hPa 0,0 l/m N 0,00 h 0 W/m 0,0 km/h (0 Bft)
16.03.2012 00:00 2,7 C 88 % 1026,5 hPa 0,0 l/m N 0,00 h 0 W/m 0,0 km/h (0 Bft)
16.03.2012 01:00 1,9 C 90 % 1026,4 hPa 0,0 l/m N 0,00 h 0 W/m 0,0 km/h (0 Bft)
16.03.2012 02:00 1,2 C 92 % 1025,9 hPa 0,0 l/m N 0,00 h 0 W/m 0,0 km/h (0 Bft)
16.03.2012 03:00 0,4 C 94 % 1025,6 hPa 0,0 l/m N 0,00 h 0 W/m 0,0 km/h (0 Bft)
16.03.2012 04:00 -0,1 C 94 % 1025,4 hPa 0,0 l/m N 0,00 h 0 W/m 0,0 km/h (0 Bft)
16.03.2012 05:00 -0,5 C 94 % 1025,3 hPa 0,0 l/m N 0,00 h 0 W/m 0,0 km/h (0 Bft)
16.03.2012 06:00 -1,0 C 95 % 1025,4 hPa 0,0 l/m N 0,00 h 11 W/m 0,0 km/h (0 Bft)
16.03.2012 07:00 -0,3 C 95 % 1025,6 hPa 0,0 l/m N 0,17 h 72 W/m 0,1 km/h (0 Bft)
16.03.2012 08:00 2,4 C 90 % 1025,7 hPa 0,0 l/m N 1,00 h 244 W/m 0,4 km/h (0 Bft)
16.03.2012 09:00 7,9 C 68 % 1025,7 hPa 0,0 l/m S-SW 1,00 h 417 W/m 8,6 km/h (2 Bft)
16.03.2012 10:00 11,7 C 54 % 1025,4 hPa 0,0 l/m S-SW 1,00 h 565 W/m 12,2 km/h (2 Bft)
16.03.2012 11:00 14,7 C 50 % 1024,7 hPa 0,0 l/m SW 1,00 h 662 W/m 14,8 km/h (3 Bft)
16.03.2012 12:00 16,9 C 45 % 1024,0 hPa 0,0 l/m S-SW 1,00 h 688 W/m 16,2 km/h (3 Bft)
16.03.2012 13:00 18,6 C 41 % 1023,3 hPa 0,0 l/m W-SW 1,00 h 666 W/m 19,6 km/h (3 Bft)
16.03.2012 14:00 19,5 C 34 % 1022,5 hPa 0,0 l/m W-SW 1,00 h 601 W/m 19,8 km/h (4 Bft)
16.03.2012 15:00 19,8 C 29 % 1021,8 hPa 0,0 l/m SW 1,00 h 491 W/m 20,2 km/h (4 Bft)
16.03.2012 16:00 19,0 C 28 % 1021,4 hPa 0,0 l/m W-SW 1,00 h 330 W/m 20,0 km/h (4 Bft)
16.03.2012 17:00 17,8 C 31 % 1021,0 hPa 0,0 l/m W-SW 0,75 h 117 W/m 15,7 km/h (3 Bft)
16.03.2012 18:00 15,2 C 39 % 1021,0 hPa 0,0 l/m W-SW 0,00 h 11 W/m 6,2 km/h (2 Bft)
16.03.2012 19:00 11,1 C 55 % 1021,0 hPa 0,0 l/m N 0,00 h 0 W/m 0,3 km/h (0 Bft)
16.03.2012 20:00 8,6 C 66 % 1021,2 hPa 0,0 l/m N 0,00 h 0 W/m 0,0 km/h (0 Bft)
16.03.2012 21:00 7,0 C 73 % 1021,2 hPa 0,0 l/m N 0,00 h 0 W/m 0,0 km/h (0 Bft)
16.03.2012 22:00 5,7 C 78 % 1021,3 hPa 0,0 l/m N 0,00 h 0 W/m 0,0 km/h (0 Bft)
16.03.2012 23:00 4,6 C 83 % 1021,2 hPa 0,0 l/m N 0,00 h 0 W/m 0,0 km/h (0 Bft)
17.03.2012 00:00 3,8 C 85 % 1021,0 hPa 0,0 l/m N 0,00 h 0 W/m 0,0 km/h (0 Bft)
17.03.2012 01:00 2,8 C 88 % 1020,8 hPa 0,0 l/m N 0,00 h 0 W/m 0,0 km/h (0 Bft)
17.03.2012 02:00 2,8 C 89 % 1020,6 hPa 0,0 l/m N 0,00 h 0 W/m 0,0 km/h (0 Bft)
17.03.2012 03:00 2,2 C 89 % 1020,3 hPa 0,0 l/m N 0,00 h 0 W/m 0,0 km/h (0 Bft)
17.03.2012 04:00 1,5 C 91 % 1020,2 hPa 0,0 l/m N 0,00 h 0 W/m 0,0 km/h (0 Bft)
17.03.2012 05:00 1,2 C 92 % 1020,4 hPa 0,0 l/m N 0,00 h 0 W/m 0,1 km/h (0 Bft)
17.03.2012 06:00 0,5 C 93 % 1020,4 hPa 0,0 l/m N 0,08 h 12 W/m 0,0 km/h (0 Bft)
17.03.2012 07:00 1,2 C 91 % 1020,4 hPa 0,0 l/m N 0,17 h 73 W/m 0,3 km/h (0 Bft)
17.03.2012 08:00 4,9 C 82 % 1020,4 hPa 0,0 l/m W-SW 1,00 h 246 W/m 2,5 km/h (1 Bft)
17.03.2012 09:00 9,4 C 67 % 1020,3 hPa 0,0 l/m S-SW 1,00 h 414 W/m 9,8 km/h (2 Bft)
17.03.2012 10:00 12,8 C 54 % 1019,9 hPa 0,0 l/m S-SW 1,00 h 526 W/m 12,9 km/h (3 Bft)
17.03.2012 11:00 15,8 C 46 % 1019,4 hPa 0,0 l/m SW 1,00 h 601 W/m 9,9 km/h (2 Bft)
17.03.2012 12:00 17,6 C 41 % 1018,7 hPa 0,0 l/m S 1,00 h 581 W/m 14,1 km/h (3 Bft)
17.03.2012 13:00 17,2 C 41 % 1018,1 hPa 0,0 l/m S-SW 0,50 h 331 W/m 14,8 km/h (3 Bft)
17.03.2012 14:00 16,6 C 39 % 1017,2 hPa 0,0 l/m SW 0,00 h 199 W/m 10,6 km/h (2 Bft)
17.03.2012 15:00 17,4 C 36 % 1016,7 hPa 0,0 l/m SW 0,67 h 374 W/m 10,1 km/h (2 Bft)
17.03.2012 16:00 17,5 C 30 % 1016,6 hPa 0,0 l/m W-SW 1,00 h 289 W/m 12,1 km/h (2 Bft)
17.03.2012 17:00 16,3 C 32 % 1016,3 hPa 0,0 l/m W-NW 0,42 h 88 W/m 5,3 km/h (1 Bft)
17.03.2012 18:00 13,7 C 43 % 1016,9 hPa 0,0 l/m W 0,17 h 15 W/m 8,0 km/h (2 Bft)
17.03.2012 19:00 12,8 C 50 % 1017,5 hPa 0,0 l/m SW 0,00 h 0 W/m 13,5 km/h (3 Bft)
17.03.2012 20:00 11,7 C 57 % 1017,5 hPa 0,0 l/m SW 0,00 h 0 W/m 7,8 km/h (2 Bft)
17.03.2012 21:00 9,3 C 66 % 1017,2 hPa 0,0 l/m N 0,00 h 0 W/m 1,2 km/h (1 Bft)
17.03.2012 22:00 7,6 C 73 % 1017,0 hPa 0,0 l/m N 0,00 h 0 W/m 0,4 km/h (0 Bft)
17.03.2012 23:00 6,6 C 76 % 1016,6 hPa 0,0 l/m N 0,00 h 0 W/m 0,1 km/h (0 Bft)
18.03.2012 00:00 5,5 C 79 % 1016,1 hPa 0,0 l/m N 0,00 h 0 W/m 0,0 km/h (0 Bft)
18.03.2012 01:00 4,4 C 81 % 1015,6 hPa 0,0 l/m N 0,00 h 0 W/m 0,0 km/h (0 Bft)
18.03.2012 02:00 4,1 C 83 % 1015,3 hPa 0,0 l/m N 0,00 h 0 W/m 0,0 km/h (0 Bft)
18.03.2012 03:00 3,6 C 85 % 1015,0 hPa 0,0 l/m N 0,00 h 0 W/m 0,0 km/h (0 Bft)
18.03.2012 04:00 3,3 C 85 % 1014,9 hPa 0,0 l/m N 0,00 h 0 W/m 0,4 km/h (0 Bft)
18.03.2012 05:00 2,5 C 87 % 1014,8 hPa 0,0 l/m N 0,00 h 0 W/m 0,4 km/h (0 Bft)
18.03.2012 06:00 2,2 C 88 % 1014,8 hPa 0,0 l/m N 0,00 h 10 W/m 0,7 km/h (0 Bft)
18.03.2012 07:00 2,4 C 88 % 1014,8 hPa 0,0 l/m N 0,17 h 62 W/m 0,0 km/h (0 Bft)
18.03.2012 08:00 5,2 C 80 % 1014,7 hPa 0,0 l/m N 0,58 h 172 W/m 0,0 km/h (0 Bft)
18.03.2012 09:00 9,3 C 67 % 1014,5 hPa 0,0 l/m S-SW 0,92 h 380 W/m 4,3 km/h (1 Bft)
18.03.2012 10:00 12,0 C 61 % 1014,3 hPa 0,0 l/m S-SO 0,50 h 400 W/m 3,9 km/h (1 Bft)
18.03.2012 11:00 14,4 C 53 % 1013,9 hPa 0,0 l/m W-NW 1,00 h 684 W/m 11,8 km/h (2 Bft)
18.03.2012 12:00 15,1 C 52 % 1013,7 hPa 0,0 l/m N-NW 0,75 h 430 W/m 13,2 km/h (3 Bft)
18.03.2012 13:00 15,2 C 49 % 1013,4 hPa 0,0 l/m W-NW 0,42 h 335 W/m 14,9 km/h (3 Bft)
18.03.2012 14:00 13,1 C 59 % 1013,7 hPa 0,0 l/m N-NW 0,00 h 118 W/m 21,7 km/h (4 Bft)
18.03.2012 15:00 10,6 C 67 % 1014,4 hPa 0,0 l/m N-NW 0,25 h 194 W/m 24,9 km/h (4 Bft)
18.03.2012 16:00 8,4 C 75 % 1015,3 hPa 0,2 l/m W-NW 0,00 h 18 W/m 10,2 km/h (2 Bft)
18.03.2012 17:00 6,5 C 82 % 1016,7 hPa 1,0 l/m W-NW 0,00 h 9 W/m 18,8 km/h (3 Bft)
18.03.2012 18:00 5,1 C 91 % 1017,8 hPa 1,4 l/m W-NW 0,00 h 0 W/m 5,9 km/h (2 Bft)
18.03.2012 19:00 4,9 C 93 % 1018,7 hPa 1,4 l/m W 0,00 h 0 W/m 7,4 km/h (2 Bft)
18.03.2012 20:00 4,1 C 93 % 1019,5 hPa 1,2 l/m W-NW 0,00 h 0 W/m 10,2 km/h (2 Bft)
18.03.2012 21:00 3,8 C 94 % 1020,4 hPa 1,4 l/m W-SW 0,00 h 0 W/m 11,8 km/h (2 Bft)
18.03.2012 22:00 3,6 C 94 % 1020,8 hPa 1,0 l/m W 0,00 h 0 W/m 7,9 km/h (2 Bft)
18.03.2012 23:00 3,3 C 95 % 1021,5 hPa 1,0 l/m W-SW 0,00 h 0 W/m 9,1 km/h (2 Bft)
Min-Datum _ 16.03.12 16.03.12 18.03.12 - - - - 12.03.12
_ Min-Zeit 07:05 16:05 13:20 - - - - 00:00
Minimum _ -1,2 C 25 % 1013,2 hPa - - - - 0,0 km/h (0 Bft)
Max-Datum _ 16.03.12 15.03.12 12.03.12 18.03.12 - 12.03.12 18.03.12 18.03.12
_ Max-Zeit 15:05 01:50 00:15 18:00 - 08:35 12:00 15:20
Maximum _ 20,0 C 100 % 1031,8 hPa 1,4 l/m - 0,08 h 821 W/m 33,8 km/h
N (5 Bft)
Durchschnitt _ 7,2 C 77 % 1025,0 hPa #8,8 l/m SW #44:25 h 274 W/m 5,0 km/h (1 Bft)